Swillington, United Kingdom
Current Conditions -  °F | °C
As of 5:50 AM on Monday 20 Oct 2014 (Local Time) from EGNM Reporting Station
Drizzle Drizzle  
Wind Chill: 50°   Ceiling: Unl
Heat Index: 50°   Visibility: 6mi
Dew Point: 50°   Wind: 12mph
Humidity: 100%   Direction: 250°WSW
Pressure: 29.85"   Gusts: NA
Location:  53.77°N, 1.42°W
Report Text: EGNM 200450Z 25010KT 9999 -DZ FEW008 SCT018 10/10 Q1011
Loading
Personal Weather Stations






























Interactive Weather Map
Tropical Storm Tracking
New forecast layout! Learn more

10-Day Weather Forecast

Advertisements
Track Severe Weather on mobile